Time;durP1;ratioP1;P1;durP2;ratioP2;P2;SDS_P1;SDS_P2;PMS_P1;PMS_P2;Temp;Humidity;BMP_temperature;BMP_pressure;BME280_temperature;BME280_humidity;BME280_pressure;Samples;Min_cycle;Max_cycle;Signal;HPM_P1;HPM_P2
2023/12/17 00:00:12;;;;;;;10.47;6.93;;;4.70;99.90;;;;;;939587;149;27282;-81
2023/12/17 00:02:39;;;;;;;10.17;7.30;;;4.60;99.90;;;;;;940226;148;27375;-80
2023/12/17 00:05:05;;;;;;;8.70;7.03;;;4.60;99.90;;;;;;939844;149;28472;-80
2023/12/17 00:07:32;;;;;;;9.17;7.03;;;4.60;99.90;;;;;;936978;148;27316;-80
2023/12/17 00:09:59;;;;;;;10.30;7.00;;;4.50;99.90;;;;;;938743;149;27901;-80
2023/12/17 00:14:57;;;;;;;8.10;6.83;;;4.50;99.90;;;;;;976579;143;38428;-81
2023/12/17 00:17:23;;;;;;;10.47;7.13;;;4.40;99.90;;;;;;963348;146;27806;-81
2023/12/17 00:19:50;;;;;;;9.30;7.10;;;4.30;99.90;;;;;;962642;147;27291;-82
2023/12/17 00:22:16;;;;;;;8.30;6.87;;;4.30;99.90;;;;;;961169;147;27340;-81
2023/12/17 00:24:43;;;;;;;9.13;7.20;;;4.20;99.90;;;;;;961830;147;27433;-80
2023/12/17 00:27:14;;;;;;;10.50;7.60;;;4.20;99.90;;;;;;959696;147;27271;-81
2023/12/17 00:29:36;;;;;;;11.03;7.10;;;4.20;99.90;;;;;;961584;146;27315;-83
2023/12/17 00:32:03;;;;;;;7.83;6.30;;;4.10;99.90;;;;;;957901;147;27415;-81
2023/12/17 00:34:29;;;;;;;9.57;7.00;;;4.10;99.90;;;;;;960305;147;28299;-81
2023/12/17 00:36:56;;;;;;;11.40;8.57;;;4.00;99.90;;;;;;961270;147;27374;-81
2023/12/17 00:39:23;;;;;;;10.63;7.77;;;4.00;99.90;;;;;;956564;147;27305;-81
2023/12/17 00:41:49;;;;;;;10.10;7.50;;;4.00;99.90;;;;;;961822;146;27318;-83
2023/12/17 00:44:16;;;;;;;12.30;6.97;;;3.90;99.90;;;;;;959580;147;27324;-81
2023/12/17 00:46:42;;;;;;;14.07;7.60;;;3.90;99.90;;;;;;959532;147;27331;-81
2023/12/17 00:49:09;;;;;;;9.97;7.47;;;3.90;99.90;;;;;;958558;147;27270;-81
2023/12/17 00:51:35;;;;;;;10.10;7.70;;;3.90;99.90;;;;;;956194;146;27793;-81
2023/12/17 00:54:02;;;;;;;11.93;8.37;;;3.80;99.90;;;;;;958008;147;27421;-81
2023/12/17 00:56:29;;;;;;;9.93;7.27;;;3.80;99.90;;;;;;958585;147;27461;-81
2023/12/17 00:58:55;;;;;;;9.80;6.93;;;3.80;99.90;;;;;;959731;147;27384;-88
2023/12/17 01:01:22;;;;;;;10.57;7.13;;;3.80;99.90;;;;;;957248;147;27387;-87
2023/12/17 01:03:48;;;;;;;9.70;7.00;;;3.80;99.90;;;;;;955474;147;27428;-84
2023/12/17 01:06:15;;;;;;;11.50;7.03;;;3.80;99.90;;;;;;958644;147;27433;-87
2023/12/17 01:08:42;;;;;;;10.00;6.97;;;3.80;99.90;;;;;;958490;147;28426;-81
2023/12/17 01:11:08;;;;;;;9.53;7.13;;;3.80;99.90;;;;;;957440;147;27300;-81
2023/12/17 01:13:35;;;;;;;7.20;6.37;;;3.80;99.90;;;;;;957275;147;27441;-82
2023/12/17 01:16:01;;;;;;;7.70;6.90;;;3.80;99.90;;;;;;957127;147;27336;-81
2023/12/17 01:18:28;;;;;;;10.20;7.70;;;3.80;99.90;;;;;;955970;147;27424;-82
2023/12/17 01:20:54;;;;;;;9.13;6.83;;;3.80;99.90;;;;;;958877;147;27471;-81
2023/12/17 01:23:21;;;;;;;8.90;7.20;;;3.80;99.90;;;;;;961156;147;27283;-81
2023/12/17 01:25:48;;;;;;;11.33;7.23;;;3.80;99.90;;;;;;957163;147;27894;-82
2023/12/17 01:28:14;;;;;;;10.20;7.10;;;3.80;99.90;;;;;;957248;147;27401;-81
2023/12/17 01:30:41;;;;;;;9.23;7.07;;;3.80;99.90;;;;;;959884;147;27317;-80
2023/12/17 01:33:07;;;;;;;8.97;7.37;;;3.80;99.90;;;;;;957880;147;27284;-80
2023/12/17 01:35:34;;;;;;;10.10;7.07;;;3.80;99.90;;;;;;958718;147;27416;-82
2023/12/17 01:38:01;;;;;;;11.07;7.40;;;3.80;99.90;;;;;;958806;147;27361;-83
2023/12/17 01:40:28;;;;;;;8.00;6.50;;;3.80;99.90;;;;;;959988;146;27318;-80
2023/12/17 01:42:54;;;;;;;10.47;7.07;;;3.80;99.90;;;;;;957587;147;27329;-81
2023/12/17 01:45:20;;;;;;;10.17;7.23;;;3.70;99.90;;;;;;958261;146;27344;-81
2023/12/17 01:47:47;;;;;;;9.40;7.00;;;3.70;99.90;;;;;;960072;146;27295;-81
2023/12/17 01:50:13;;;;;;;9.90;7.80;;;3.70;99.90;;;;;;958559;147;27352;-81
2023/12/17 01:52:40;;;;;;;7.40;6.57;;;3.70;99.90;;;;;;956186;147;27280;-81
2023/12/17 01:55:07;;;;;;;11.00;7.30;;;3.70;99.90;;;;;;956226;147;27393;-81
2023/12/17 01:57:33;;;;;;;9.20;7.37;;;3.70;99.90;;;;;;957506;146;27349;-81
2023/12/17 02:00:00;;;;;;;7.10;6.33;;;3.70;99.90;;;;;;957081;147;27277;-83
2023/12/17 02:02:26;;;;;;;12.17;7.07;;;3.70;99.90;;;;;;958855;147;27338;-80
2023/12/17 02:04:53;;;;;;;10.23;6.73;;;3.70;99.90;;;;;;958487;147;27399;-80
2023/12/17 02:07:20;;;;;;;9.53;6.37;;;3.70;99.90;;;;;;957915;147;27313;-81
2023/12/17 02:09:46;;;;;;;8.27;6.37;;;3.60;99.90;;;;;;955070;147;27292;-84
2023/12/17 02:12:15;;;;;;;7.93;6.93;;;3.60;99.90;;;;;;955672;147;27347;-85
2023/12/17 02:14:42;;;;;;;10.03;7.33;;;3.60;99.90;;;;;;951303;147;27336;-85
2023/12/17 02:17:09;;;;;;;7.47;6.73;;;3.60;99.90;;;;;;960406;147;27301;-86
2023/12/17 02:19:35;;;;;;;10.60;7.63;;;3.60;99.90;;;;;;956573;147;27304;-83
2023/12/17 02:22:02;;;;;;;12.30;7.23;;;3.60;99.90;;;;;;957702;147;27910;-88
2023/12/17 02:24:28;;;;;;;9.67;7.40;;;3.60;99.90;;;;;;959554;147;27429;-86
2023/12/17 02:26:55;;;;;;;8.07;6.73;;;3.60;99.90;;;;;;956158;147;27385;-87
2023/12/17 02:29:22;;;;;;;7.80;6.90;;;3.60;99.90;;;;;;959548;147;27308;-86
2023/12/17 02:31:48;;;;;;;8.13;6.63;;;3.60;99.90;;;;;;957896;147;27339;-89
2023/12/17 02:34:15;;;;;;;10.53;7.03;;;3.60;99.90;;;;;;962030;147;27358;-88
2023/12/17 02:36:41;;;;;;;7.80;6.63;;;3.60;99.90;;;;;;957584;147;27367;-88
2023/12/17 02:39:08;;;;;;;7.23;6.57;;;3.50;99.90;;;;;;958637;147;27400;-88
2023/12/17 02:41:34;;;;;;;8.10;6.70;;;3.50;99.90;;;;;;960506;147;27277;-85
2023/12/17 02:44:01;;;;;;;8.17;5.90;;;3.50;99.90;;;;;;943076;149;27330;-89
2023/12/17 02:46:28;;;;;;;9.60;6.40;;;3.50;99.90;;;;;;927558;150;27313;-88
2023/12/17 02:48:54;;;;;;;8.10;6.63;;;3.60;99.90;;;;;;926775;150;27312;-88
2023/12/17 02:51:21;;;;;;;7.73;6.40;;;3.50;99.90;;;;;;942368;149;27390;-87
2023/12/17 02:53:47;;;;;;;7.10;6.40;;;3.60;99.90;;;;;;937660;149;27350;-83
2023/12/17 02:56:14;;;;;;;9.40;6.23;;;3.60;99.90;;;;;;928277;150;27380;-88
2023/12/17 02:58:41;;;;;;;7.73;6.30;;;3.70;99.90;;;;;;935679;149;27661;-88
2023/12/17 03:01:07;;;;;;;8.30;6.03;;;3.70;99.90;;;;;;937794;149;27280;-88
2023/12/17 03:03:34;;;;;;;9.07;6.03;;;3.80;99.90;;;;;;941804;149;27430;-86
2023/12/17 03:06:00;;;;;;;9.60;6.37;;;3.80;99.90;;;;;;940681;149;27465;-89
2023/12/17 03:08:27;;;;;;;8.07;6.23;;;3.90;99.90;;;;;;934391;150;28626;-87
2023/12/17 03:10:53;;;;;;;10.57;7.07;;;4.00;99.90;;;;;;950202;146;27287;-88
2023/12/17 03:13:20;;;;;;;10.50;7.33;;;4.00;99.90;;;;;;936676;150;27393;-87
2023/12/17 03:15:47;;;;;;;9.50;6.67;;;4.10;99.90;;;;;;951230;148;27413;-82
2023/12/17 03:18:14;;;;;;;9.33;6.67;;;4.20;99.90;;;;;;948832;148;27400;-85
2023/12/17 03:20:40;;;;;;;9.17;5.97;;;4.30;99.90;;;;;;946091;148;27869;-85
2023/12/17 03:23:07;;;;;;;7.77;5.93;;;4.30;99.90;;;;;;950397;148;27344;-86
2023/12/17 03:25:33;;;;;;;9.17;5.93;;;4.40;99.90;;;;;;949380;148;27336;-83
2023/12/17 03:28:00;;;;;;;8.93;6.47;;;4.40;99.90;;;;;;948473;148;27332;-84
2023/12/17 03:30:26;;;;;;;7.03;6.40;;;4.50;99.90;;;;;;947321;148;27500;-88
2023/12/17 03:32:53;;;;;;;9.00;7.27;;;4.60;99.90;;;;;;956926;146;27905;-87
2023/12/17 03:35:19;;;;;;;7.60;6.60;;;4.60;99.90;;;;;;956423;146;27255;-86
2023/12/17 03:37:46;;;;;;;9.13;6.60;;;4.70;99.90;;;;;;956607;146;27384;-84
2023/12/17 03:40:13;;;;;;;7.00;6.33;;;4.70;99.90;;;;;;955851;146;27419;-87
2023/12/17 03:42:39;;;;;;;8.20;6.40;;;4.80;99.90;;;;;;951245;147;27317;-86
2023/12/17 03:45:06;;;;;;;7.53;6.30;;;4.80;99.90;;;;;;941257;150;27314;-88
2023/12/17 03:47:32;;;;;;;9.10;6.33;;;4.80;99.90;;;;;;951665;147;27281;-83
2023/12/17 03:49:59;;;;;;;6.90;6.20;;;4.90;99.90;;;;;;938220;150;27396;-88
2023/12/17 03:52:25;;;;;;;6.77;6.07;;;4.90;99.90;;;;;;951373;147;27397;-86
2023/12/17 03:54:52;;;;;;;7.70;6.20;;;4.90;99.90;;;;;;950528;147;27312;-87
2023/12/17 03:57:19;;;;;;;8.47;6.50;;;5.00;99.90;;;;;;949520;146;27272;-87
2023/12/17 03:59:45;;;;;;;9.37;6.10;;;5.00;99.90;;;;;;949857;146;27794;-82
2023/12/17 04:02:12;;;;;;;8.77;6.40;;;5.10;99.90;;;;;;927109;150;27365;-87
2023/12/17 04:04:38;;;;;;;7.33;6.60;;;5.10;99.90;;;;;;950975;147;27309;-87
2023/12/17 04:07:05;;;;;;;7.83;6.43;;;5.10;99.90;;;;;;952042;147;27397;-87
2023/12/17 04:09:32;;;;;;;13.80;6.77;;;5.10;99.90;;;;;;951796;147;27402;-85
2023/12/17 04:11:58;;;;;;;7.53;6.43;;;5.10;99.90;;;;;;934079;150;28143;-87
2023/12/17 04:14:25;;;;;;;8.30;6.00;;;5.10;99.90;;;;;;949322;148;27826;-88
2023/12/17 04:16:51;;;;;;;7.57;6.13;;;5.10;99.90;;;;;;948080;148;27375;-88
2023/12/17 04:19:18;;;;;;;7.80;6.10;;;5.10;99.90;;;;;;941025;149;27427;-86
2023/12/17 04:21:44;;;;;;;8.23;6.00;;;5.10;99.90;;;;;;940147;148;27334;-85
2023/12/17 04:24:11;;;;;;;6.57;5.97;;;5.20;99.90;;;;;;940353;148;27382;-87
2023/12/17 04:26:38;;;;;;;8.20;6.53;;;5.10;99.90;;;;;;941631;148;27372;-84
2023/12/17 04:29:04;;;;;;;8.30;6.10;;;5.10;99.90;;;;;;942602;148;27770;-86
2023/12/17 04:31:31;;;;;;;8.27;6.17;;;5.20;99.90;;;;;;942223;149;27306;-85
2023/12/17 04:33:57;;;;;;;8.77;6.10;;;5.10;99.90;;;;;;939886;148;28277;-86
2023/12/17 04:36:24;;;;;;;8.07;5.97;;;5.10;99.90;;;;;;939796;149;27339;-86
2023/12/17 04:38:51;;;;;;;8.07;5.57;;;5.20;99.90;;;;;;954601;147;27273;-86
2023/12/17 04:41:17;;;;;;;8.43;5.43;;;5.10;99.90;;;;;;937860;149;27387;-80
2023/12/17 04:43:44;;;;;;;8.07;5.80;;;5.10;99.90;;;;;;929675;149;27353;-82
2023/12/17 04:46:10;;;;;;;10.13;6.47;;;5.10;99.90;;;;;;936277;149;27371;-80
2023/12/17 04:48:37;;;;;;;8.33;6.07;;;5.10;99.90;;;;;;941034;150;27276;-80
2023/12/17 04:51:03;;;;;;;8.40;5.80;;;5.20;99.90;;;;;;936158;150;27341;-80
2023/12/17 04:53:30;;;;;;;9.63;5.17;;;5.20;99.90;;;;;;945307;149;27324;-80
2023/12/17 04:55:57;;;;;;;7.10;5.00;;;5.20;99.90;;;;;;947939;149;27365;-81
2023/12/17 04:58:23;;;;;;;6.33;5.60;;;5.20;99.90;;;;;;943485;149;28755;-80
2023/12/17 05:00:50;;;;;;;6.73;5.70;;;5.20;99.90;;;;;;938703;149;27290;-81
2023/12/17 05:03:16;;;;;;;6.03;5.30;;;5.20;99.90;;;;;;939618;149;27298;-80
2023/12/17 05:05:44;;;;;;;6.93;5.50;;;5.20;99.90;;;;;;939439;148;27271;-81
2023/12/17 05:08:10;;;;;;;8.83;5.53;;;5.20;99.90;;;;;;938890;148;27471;-81
2023/12/17 05:10:36;;;;;;;11.33;5.90;;;5.30;99.90;;;;;;941442;148;27365;-80
2023/12/17 05:13:03;;;;;;;6.87;5.47;;;5.30;99.90;;;;;;938720;148;27331;-80
2023/12/17 05:15:31;;;;;;;8.07;5.07;;;5.30;99.90;;;;;;938881;148;27874;-80
2023/12/17 05:17:56;;;;;;;8.57;5.40;;;5.30;99.90;;;;;;939041;149;27475;-80
2023/12/17 05:20:22;;;;;;;6.67;5.53;;;5.30;99.90;;;;;;940050;149;27918;-81
2023/12/17 05:22:49;;;;;;;8.07;5.30;;;5.30;99.90;;;;;;940895;149;27349;-80
2023/12/17 05:25:16;;;;;;;8.33;5.27;;;5.30;99.90;;;;;;939953;149;27392;-81
2023/12/17 05:27:42;;;;;;;7.17;5.13;;;5.30;99.90;;;;;;935995;149;27929;-80
2023/12/17 05:30:09;;;;;;;8.20;5.40;;;5.30;99.90;;;;;;922873;154;27456;-80
2023/12/17 05:32:35;;;;;;;6.63;4.87;;;5.30;99.90;;;;;;937622;149;27389;-80
2023/12/17 05:35:02;;;;;;;7.97;5.00;;;5.30;99.90;;;;;;934249;150;27319;-80
2023/12/17 05:37:29;;;;;;;6.17;4.77;;;5.30;99.90;;;;;;933844;150;27320;-81
2023/12/17 05:39:55;;;;;;;7.80;5.37;;;5.30;99.90;;;;;;934163;150;27850;-82
2023/12/17 05:42:22;;;;;;;6.00;4.83;;;5.40;99.90;;;;;;929683;150;27371;-81
2023/12/17 05:44:48;;;;;;;6.17;5.20;;;5.40;99.90;;;;;;938462;149;27873;-81
2023/12/17 05:47:15;;;;;;;7.50;5.13;;;5.40;99.90;;;;;;937454;149;27419;-81
2023/12/17 05:49:41;;;;;;;6.57;5.17;;;5.40;99.90;;;;;;933583;150;27463;-82
2023/12/17 05:52:08;;;;;;;7.10;5.27;;;5.40;99.90;;;;;;933726;150;27387;-87
2023/12/17 05:54:35;;;;;;;7.93;5.87;;;5.40;99.90;;;;;;934094;150;27355;-86
2023/12/17 05:57:01;;;;;;;8.00;4.93;;;5.40;99.90;;;;;;934574;150;27311;-87
2023/12/17 05:59:28;;;;;;;7.47;5.40;;;5.40;99.90;;;;;;934178;150;27263;-87
2023/12/17 06:01:55;;;;;;;5.97;5.13;;;5.50;99.90;;;;;;934478;150;27726;-86
2023/12/17 06:04:21;;;;;;;6.07;5.40;;;5.50;99.90;;;;;;934383;150;27362;-87
2023/12/17 06:06:48;;;;;;;7.23;5.10;;;5.50;99.90;;;;;;933934;150;27381;-87
2023/12/17 06:09:14;;;;;;;5.83;5.07;;;5.50;99.90;;;;;;934274;150;27394;-86
2023/12/17 06:11:41;;;;;;;9.47;5.10;;;5.50;99.90;;;;;;934198;150;27374;-83
2023/12/17 06:14:07;;;;;;;6.20;4.57;;;5.50;99.90;;;;;;933725;150;27472;-88
2023/12/17 06:16:34;;;;;;;8.20;5.23;;;5.50;99.90;;;;;;934088;150;27318;-87
2023/12/17 06:19:00;;;;;;;6.30;4.97;;;5.50;99.90;;;;;;906304;153;27424;-87
2023/12/17 06:21:27;;;;;;;8.00;5.50;;;5.50;99.90;;;;;;940527;148;27281;-84
2023/12/17 06:24:02;;;;;;;9.00;6.10;;;5.50;99.90;;;;;;922380;151;27395;-87
2023/12/17 06:26:26;;;;;;;10.37;6.13;;;5.50;99.90;;;;;;920647;151;27340;-87
2023/12/17 06:28:53;;;;;;;7.30;5.67;;;5.50;99.90;;;;;;921896;151;27289;-85
2023/12/17 06:31:19;;;;;;;7.37;5.27;;;5.50;99.90;;;;;;947684;148;27373;-85
2023/12/17 06:33:46;;;;;;;6.23;5.47;;;5.40;99.90;;;;;;939078;151;27391;-86
2023/12/17 06:36:12;;;;;;;5.93;5.17;;;5.40;99.90;;;;;;931874;151;27518;-85
2023/12/17 06:38:42;;;;;;;7.57;5.37;;;5.30;99.90;;;;;;920260;152;27427;-87
2023/12/17 06:41:08;;;;;;;6.70;4.80;;;5.30;99.90;;;;;;929307;152;27427;-85
2023/12/17 06:43:36;;;;;;;7.60;5.67;;;5.20;99.90;;;;;;930963;151;27384;-86
2023/12/17 06:46:01;;;;;;;10.17;6.03;;;5.10;99.90;;;;;;929030;152;27443;-87
2023/12/17 06:48:28;;;;;;;6.27;4.73;;;5.00;99.90;;;;;;930259;152;27391;-86
2023/12/17 06:50:55;;;;;;;7.20;5.20;;;5.00;99.90;;;;;;930939;152;27300;-81
2023/12/17 06:53:21;;;;;;;7.23;5.30;;;4.90;99.90;;;;;;920286;152;27462;-82
2023/12/17 06:55:48;;;;;;;8.73;5.93;;;4.80;99.90;;;;;;909737;155;27398;-81
2023/12/17 06:58:14;;;;;;;8.33;5.30;;;4.80;99.90;;;;;;929278;152;27477;-80
2023/12/17 07:00:41;;;;;;;5.43;4.90;;;4.70;99.90;;;;;;906109;153;27423;-81
2023/12/17 07:03:08;;;;;;;5.90;5.27;;;4.60;99.90;;;;;;904331;153;27411;-80
2023/12/17 07:05:34;;;;;;;7.63;5.80;;;4.60;99.90;;;;;;921006;151;27361;-81
2023/12/17 07:08:01;;;;;;;9.43;5.90;;;4.50;99.90;;;;;;930216;151;27466;-80
2023/12/17 07:10:27;;;;;;;6.73;5.27;;;4.50;99.90;;;;;;926927;152;27321;-80
2023/12/17 07:12:54;;;;;;;6.13;5.47;;;4.40;99.90;;;;;;928758;153;27343;-80
2023/12/17 07:15:20;;;;;;;10.40;6.73;;;4.40;99.90;;;;;;927635;153;27397;-82
2023/12/17 07:17:47;;;;;;;7.43;5.77;;;4.30;99.90;;;;;;935227;148;27408;-80
2023/12/17 07:20:14;;;;;;;6.63;5.87;;;4.30;99.90;;;;;;954350;148;27352;-81
2023/12/17 07:22:40;;;;;;;8.03;5.43;;;4.30;99.90;;;;;;952689;147;27761;-82
2023/12/17 07:25:07;;;;;;;9.03;6.73;;;4.30;99.90;;;;;;947965;148;27352;-82
2023/12/17 07:27:33;;;;;;;6.67;6.07;;;4.30;99.90;;;;;;952781;147;27377;-82
2023/12/17 07:30:01;;;;;;;6.47;5.80;;;4.30;99.90;;;;;;949162;148;28600;-82
2023/12/17 07:32:27;;;;;;;7.57;6.30;;;4.30;99.90;;;;;;947266;147;27302;-82
2023/12/17 07:34:53;;;;;;;7.80;6.30;;;4.20;99.90;;;;;;948216;148;27340;-82
2023/12/17 07:37:20;;;;;;;7.40;5.73;;;4.30;99.90;;;;;;949484;148;27318;-83
2023/12/17 07:39:46;;;;;;;7.73;6.50;;;4.30;99.90;;;;;;927601;150;27450;-82
2023/12/17 07:42:13;;;;;;;7.43;5.53;;;4.30;99.90;;;;;;927593;150;27367;-82
2023/12/17 07:44:39;;;;;;;10.80;5.57;;;4.30;99.90;;;;;;927526;150;27429;-82
2023/12/17 07:47:10;;;;;;;9.63;6.23;;;4.30;99.90;;;;;;927431;150;27346;-82
2023/12/17 07:49:33;;;;;;;11.03;6.03;;;4.30;99.90;;;;;;950344;148;27474;-81
2023/12/17 07:51:59;;;;;;;6.77;5.40;;;4.30;99.90;;;;;;950807;148;27294;-81
2023/12/17 07:54:28;;;;;;;6.00;5.40;;;4.30;99.90;;;;;;952405;148;27642;-82
2023/12/17 07:56:52;;;;;;;9.50;6.53;;;4.30;99.90;;;;;;950879;148;27305;-82
2023/12/17 07:59:19;;;;;;;6.57;5.50;;;4.30;99.90;;;;;;950741;148;27485;-81
2023/12/17 08:01:46;;;;;;;6.57;5.30;;;4.40;99.90;;;;;;940194;149;27360;-83
2023/12/17 08:04:13;;;;;;;6.83;5.67;;;4.50;99.90;;;;;;955465;147;27351;-83
2023/12/17 08:06:39;;;;;;;9.73;5.67;;;4.50;99.90;;;;;;956530;147;27265;-83
2023/12/17 08:09:05;;;;;;;6.03;5.03;;;4.60;99.90;;;;;;955132;147;27337;-83
2023/12/17 08:11:32;;;;;;;6.30;5.70;;;4.60;99.90;;;;;;955393;147;27855;-83
2023/12/17 08:13:58;;;;;;;6.53;5.53;;;4.70;99.90;;;;;;955083;147;27430;-83
2023/12/17 08:16:26;;;;;;;8.27;5.73;;;4.80;99.90;;;;;;951215;147;27850;-83
2023/12/17 08:18:52;;;;;;;6.83;5.47;;;4.80;99.90;;;;;;937888;150;27323;-83
2023/12/17 08:21:18;;;;;;;5.57;4.90;;;4.90;99.90;;;;;;949942;146;27463;-83
2023/12/17 08:23:45;;;;;;;7.37;5.73;;;4.90;99.90;;;;;;938883;150;27377;-83
2023/12/17 08:26:11;;;;;;;6.97;5.43;;;5.00;99.90;;;;;;951268;147;27324;-83
2023/12/17 08:28:38;;;;;;;6.83;5.47;;;5.00;99.90;;;;;;930777;150;27328;-83
2023/12/17 08:31:09;;;;;;;9.20;5.97;;;5.10;99.90;;;;;;932756;150;27311;-83
2023/12/17 08:33:34;;;;;;;7.33;6.03;;;5.10;99.90;;;;;;947172;148;27373;-83
2023/12/17 08:36:00;;;;;;;6.50;5.80;;;5.10;99.90;;;;;;949376;148;27450;-83
2023/12/17 08:38:27;;;;;;;7.37;5.53;;;5.20;99.90;;;;;;948684;148;27407;-83
2023/12/17 08:40:54;;;;;;;8.67;6.40;;;5.20;99.90;;;;;;947628;148;27318;-83
2023/12/17 08:43:20;;;;;;;6.83;5.60;;;5.30;99.90;;;;;;947397;148;27662;-83
2023/12/17 08:45:47;;;;;;;7.00;4.97;;;5.30;99.90;;;;;;949158;148;27326;-83
2023/12/17 08:48:13;;;;;;;6.57;5.53;;;5.40;99.90;;;;;;955838;146;27287;-83
2023/12/17 08:50:40;;;;;;;5.87;5.37;;;5.40;99.90;;;;;;951230;147;27363;-83
2023/12/17 08:53:06;;;;;;;8.13;6.70;;;5.50;99.90;;;;;;940617;149;27342;-83
2023/12/17 08:55:33;;;;;;;7.63;6.03;;;5.50;99.90;;;;;;934987;150;27384;-83
2023/12/17 08:58:00;;;;;;;7.27;6.00;;;5.60;99.90;;;;;;934954;149;27798;-83
2023/12/17 09:00:26;;;;;;;7.80;6.07;;;5.60;99.90;;;;;;935430;149;27298;-83
2023/12/17 09:02:53;;;;;;;7.90;5.73;;;5.60;99.90;;;;;;934982;149;27357;-83
2023/12/17 09:05:19;;;;;;;7.77;5.70;;;5.60;99.90;;;;;;934997;149;27322;-83
2023/12/17 09:07:46;;;;;;;6.67;5.50;;;5.70;99.90;;;;;;934399;149;27321;-83
2023/12/17 09:10:12;;;;;;;9.17;6.40;;;5.70;99.90;;;;;;935980;149;27403;-83
2023/12/17 09:12:39;;;;;;;7.17;5.73;;;5.70;99.90;;;;;;935299;150;27883;-85
2023/12/17 09:15:06;;;;;;;7.50;5.50;;;5.80;99.90;;;;;;935477;149;27838;-85
2023/12/17 09:17:32;;;;;;;8.37;5.80;;;5.80;99.90;;;;;;935466;149;27854;-85
2023/12/17 09:19:59;;;;;;;10.57;7.53;;;5.80;99.90;;;;;;935464;150;27337;-86
2023/12/17 09:22:26;;;;;;;16.87;9.93;;;5.80;99.90;;;;;;935111;150;27399;-82
2023/12/17 09:24:52;;;;;;;17.40;11.67;;;5.90;99.90;;;;;;935866;149;27750;-81
2023/12/17 09:27:19;;;;;;;16.87;10.43;;;5.90;99.90;;;;;;935606;149;27441;-81
2023/12/17 09:29:45;;;;;;;8.87;7.57;;;5.90;99.90;;;;;;934931;149;27400;-81
2023/12/17 09:32:12;;;;;;;9.20;7.20;;;6.00;99.90;;;;;;935668;149;27400;-81
2023/12/17 09:34:38;;;;;;;7.63;6.67;;;6.10;99.90;;;;;;935752;150;27374;-81
2023/12/17 09:37:05;;;;;;;8.80;6.20;;;6.10;99.90;;;;;;935563;149;27368;-81
2023/12/17 09:39:31;;;;;;;9.77;5.90;;;6.20;99.90;;;;;;935150;150;27318;-82
2023/12/17 09:41:58;;;;;;;8.13;6.80;;;6.20;99.90;;;;;;935252;149;27411;-82
2023/12/17 09:44:26;;;;;;;8.10;6.17;;;6.30;99.90;;;;;;935312;150;27400;-82
2023/12/17 09:46:51;;;;;;;7.33;5.70;;;6.40;99.90;;;;;;934857;149;27361;-81
2023/12/17 09:49:18;;;;;;;8.17;7.00;;;6.50;99.90;;;;;;935395;150;27362;-81
2023/12/17 09:51:44;;;;;;;8.63;6.43;;;6.50;99.90;;;;;;934926;149;27313;-81
2023/12/17 09:54:11;;;;;;;8.73;7.07;;;6.60;99.90;;;;;;935001;150;27582;-81
2023/12/17 09:56:38;;;;;;;9.80;6.87;;;6.60;99.90;;;;;;935374;149;27373;-81
2023/12/17 09:59:04;;;;;;;8.63;6.93;;;6.70;99.90;;;;;;935671;150;28312;-81
2023/12/17 10:01:31;;;;;;;9.87;7.30;;;6.80;99.90;;;;;;935004;149;27259;-81
2023/12/17 10:03:57;;;;;;;13.23;7.73;;;6.90;99.90;;;;;;949657;146;27311;-81
2023/12/17 10:06:24;;;;;;;12.07;7.23;;;6.90;99.90;;;;;;927284;150;27342;-82
2023/12/17 10:08:51;;;;;;;8.03;7.00;;;7.00;99.90;;;;;;947863;148;27450;-81
2023/12/17 10:11:17;;;;;;;8.30;7.40;;;7.10;99.90;;;;;;947553;148;27337;-82
2023/12/17 10:13:44;;;;;;;8.50;7.53;;;7.20;99.90;;;;;;948528;148;27310;-81
2023/12/17 10:16:10;;;;;;;7.83;6.80;;;7.20;99.90;;;;;;951265;147;27292;-82
2023/12/17 10:18:37;;;;;;;9.30;8.27;;;7.30;99.90;;;;;;937071;150;27439;-82
2023/12/17 10:21:04;;;;;;;10.17;7.47;;;7.40;99.90;;;;;;939945;148;27474;-85
2023/12/17 10:23:30;;;;;;;8.73;7.47;;;7.40;99.90;;;;;;940757;150;27289;-85
2023/12/17 10:26:00;;;;;;;8.37;7.37;;;7.50;99.90;;;;;;953961;146;27359;-85
2023/12/17 10:28:26;;;;;;;9.03;7.13;;;7.60;99.90;;;;;;948098;148;27405;-84
2023/12/17 10:30:53;;;;;;;7.30;6.50;;;7.70;99.90;;;;;;951158;148;27350;-84
2023/12/17 10:33:19;;;;;;;8.97;7.33;;;7.70;99.90;;;;;;948094;148;27337;-85
2023/12/17 10:35:46;;;;;;;9.63;7.60;;;7.80;99.90;;;;;;946670;148;27395;-85
2023/12/17 10:38:13;;;;;;;9.40;7.70;;;7.80;99.90;;;;;;927715;150;27305;-84
2023/12/17 10:40:41;;;;;;;10.97;7.10;;;7.90;99.90;;;;;;927768;150;27375;-84
2023/12/17 10:43:06;;;;;;;11.13;7.90;;;7.90;99.90;;;;;;927290;150;27342;-84
2023/12/17 10:45:32;;;;;;;9.30;7.37;;;8.00;99.90;;;;;;926749;150;27348;-85
2023/12/17 10:47:59;;;;;;;10.77;8.10;;;8.10;99.90;;;;;;945383;149;27332;-85
2023/12/17 10:50:25;;;;;;;9.27;7.63;;;8.20;99.90;;;;;;936070;150;27363;-84
2023/12/17 10:52:52;;;;;;;8.97;6.70;;;8.30;99.90;;;;;;957735;146;27344;-84
2023/12/17 10:55:19;;;;;;;8.90;7.40;;;8.50;99.90;;;;;;950345;146;27392;-85
2023/12/17 10:57:57;;;;;;;8.90;8.00;;;8.60;99.90;;;;;;950185;146;27372;-85
2023/12/17 11:00:23;;;;;;;7.53;6.30;;;8.70;99.90;;;;;;927248;150;27474;-85
2023/12/17 11:02:50;;;;;;;7.43;6.40;;;8.80;99.90;;;;;;951281;147;27328;-85
2023/12/17 11:05:17;;;;;;;10.50;7.50;;;8.90;99.90;;;;;;938231;149;27334;-84
2023/12/17 11:07:43;;;;;;;9.20;6.77;;;9.00;99.90;;;;;;928129;150;27838;-85
2023/12/17 11:10:12;;;;;;;23.60;13.83;;;9.10;99.90;;;;;;927732;150;27414;-85
2023/12/17 11:12:36;;;;;;;9.70;7.73;;;9.20;99.90;;;;;;953081;148;27400;-85
2023/12/17 11:15:03;;;;;;;12.40;8.03;;;9.30;99.90;;;;;;951027;148;27353;-85
2023/12/17 11:17:29;;;;;;;8.97;6.70;;;9.40;99.90;;;;;;953489;148;27278;-84
2023/12/17 11:19:59;;;;;;;9.50;6.30;;;9.50;99.90;;;;;;951756;148;27412;-84
2023/12/17 11:22:25;;;;;;;5.77;4.93;;;9.60;99.90;;;;;;946935;148;27478;-84
2023/12/17 11:24:58;;;;;;;11.33;5.07;;;9.70;99.90;;;;;;947384;148;28556;-84
2023/12/17 11:27:24;;;;;;;8.77;5.07;;;9.80;99.90;;;;;;948349;148;27443;-85
2023/12/17 11:29:51;;;;;;;7.20;5.47;;;9.90;99.90;;;;;;949284;148;27300;-84
2023/12/17 11:32:17;;;;;;;9.23;5.23;;;9.90;99.90;;;;;;947209;148;27374;-82
2023/12/17 11:34:48;;;;;;;6.30;4.73;;;10.00;99.90;;;;;;945434;148;27308;-82
2023/12/17 11:37:10;;;;;;;7.73;4.90;;;10.10;99.90;;;;;;936406;149;27450;-82
2023/12/17 11:39:37;;;;;;;10.40;5.07;;;10.10;99.90;;;;;;939342;150;27307;-82
2023/12/17 11:42:04;;;;;;;5.43;4.77;;;10.20;99.90;;;;;;939527;149;27424;-82
2023/12/17 11:44:30;;;;;;;5.00;4.50;;;10.20;99.90;;;;;;955226;145;27358;-83
2023/12/17 11:46:57;;;;;;;8.83;4.77;;;10.30;99.90;;;;;;937718;150;27282;-82
2023/12/17 11:49:23;;;;;;;6.87;5.37;;;10.20;99.90;;;;;;948972;148;27363;-82
2023/12/17 11:51:50;;;;;;;8.80;5.23;;;10.20;99.70;;;;;;950267;148;27380;-82
2023/12/17 11:54:19;;;;;;;8.50;5.17;;;10.20;99.40;;;;;;946841;148;27434;-82
2023/12/17 11:56:46;;;;;;;6.70;4.90;;;10.10;99.30;;;;;;948442;148;27428;-82
2023/12/17 11:59:12;;;;;;;6.00;4.80;;;10.10;99.20;;;;;;948543;148;27378;-82
2023/12/17 12:01:39;;;;;;;11.07;5.33;;;10.00;99.00;;;;;;948023;148;27462;-82
2023/12/17 12:04:06;;;;;;;9.80;6.00;;;9.90;98.90;;;;;;949540;148;27330;-82
2023/12/17 12:06:32;;;;;;;5.70;4.80;;;9.90;99.20;;;;;;948686;148;27489;-82
2023/12/17 12:08:59;;;;;;;7.83;5.47;;;9.80;99.40;;;;;;950266;148;27407;-83
2023/12/17 12:11:34;;;;;;;10.17;5.80;;;9.80;99.40;;;;;;947079;148;27830;-82
2023/12/17 12:14:00;;;;;;;7.67;5.60;;;9.70;99.50;;;;;;939902;149;27454;-82
2023/12/17 12:16:27;;;;;;;6.97;5.20;;;9.70;99.50;;;;;;940685;150;27319;-81
2023/12/17 12:19:02;;;;;;;6.97;5.47;;;9.70;99.60;;;;;;955712;147;27293;-82
2023/12/17 12:21:29;;;;;;;6.87;5.30;;;9.60;99.70;;;;;;960296;145;27359;-83
2023/12/17 12:23:56;;;;;;;7.83;5.10;;;9.60;99.90;;;;;;959793;146;27363;-82
2023/12/17 12:26:22;;;;;;;6.33;5.57;;;9.50;99.90;;;;;;944015;148;27328;-82
2023/12/17 12:28:58;;;;;;;8.70;5.30;;;9.50;99.90;;;;;;960427;146;27412;-81
2023/12/17 12:31:24;;;;;;;5.33;4.80;;;9.50;99.90;;;;;;931501;150;27411;-82
2023/12/17 12:33:54;;;;;;;9.43;5.43;;;9.50;99.90;;;;;;947104;148;27308;-82
2023/12/17 12:36:20;;;;;;;8.70;5.80;;;9.50;99.90;;;;;;943811;148;27400;-81
2023/12/17 12:39:02;;;;;;;9.73;5.47;;;9.50;99.90;;;;;;940841;149;27404;-82
2023/12/17 12:41:31;;;;;;;8.33;5.47;;;9.50;99.90;;;;;;939719;149;27298;-83
2023/12/17 12:44:01;;;;;;;6.17;5.07;;;9.50;99.90;;;;;;939071;149;27502;-84
2023/12/17 12:46:28;;;;;;;7.63;5.13;;;9.50;99.90;;;;;;955797;146;27350;-84
2023/12/17 12:48:55;;;;;;;5.67;5.17;;;9.50;99.90;;;;;;955432;146;27336;-84
2023/12/17 12:51:21;;;;;;;7.77;4.90;;;9.50;99.90;;;;;;954962;146;27400;-83
2023/12/17 12:53:47;;;;;;;6.87;4.93;;;9.50;99.90;;;;;;945202;148;27459;-83